^^
Saratoga-Weather Station Historical Data
Daily Summary for August 3, 2021 Units:  Metric    English   Both
Daily Weekly Monthly Yearly Custom
  High: Low: Average:
Temperature: 18.6 °C 13.3 °C 15.5 °C
Dew Point: 16.4 °C 12.5 °C 14.2 °C
Humidity: 97% 82% 92%
Wind Speed: 14.5km/h 0km/h 2.6km/h
Wind Gust: 17.7km/h - -
Wind- - SW
Pressure: 1014.6 hPa 1011.2 hPa -
Precipitation: 20.1 mm    
Historical Graphs
 
 
Tabular Data for August 3, 2021
Time Temperature Dew Point Pressure Wind Wind Speed Wind Gust Humidity Rainfall Rate (Hourly) solar
00:03 14.7 °C 13.7 °C 1014.6 hPa Calm     94% 1.0 mm 0 W/m2
00:08 14.7 °C 13.7 °C 1014.6 hPa West 1.4 km/h 3.2 km/h 94% 1.0 mm 0 W/m2
00:13 14.7 °C 13.7 °C 1014.2 hPa Calm   1.6 km/h 94% 1.0 mm 0 W/m2
00:18 14.7 °C 13.7 °C 1014.2 hPa Calm     94% 1.0 mm 0 W/m2
00:23 14.6 °C 13.6 °C 1014.2 hPa Calm     94% 1.0 mm 0 W/m2
00:28 14.6 °C 13.6 °C 1014.2 hPa Calm     94% 1.0 mm 0 W/m2
00:33 14.6 °C 13.6 °C 1014.2 hPa Calm     94% 1.0 mm 0 W/m2
00:38 14.6 °C 13.6 °C 1014.2 hPa Calm     94% 1.0 mm 0 W/m2
00:44 14.5 °C 13.5 °C 1014.2 hPa Calm   1.6 km/h 94% 0.8 mm 0 W/m2
00:49 14.5 °C 13.5 °C 1014.2 hPa Calm     94% 0.2 mm 0 W/m2
00:54 14.4 °C 13.4 °C 1014.2 hPa Calm     94% 0.0 mm 0 W/m2
00:59 14.4 °C 13.6 °C 1013.9 hPa Calm     95% 0.0 mm 0 W/m2
01:04 14.4 °C 13.6 °C 1013.9 hPa Calm     95% 0.0 mm 0 W/m2
01:09 14.4 °C 13.6 °C 1013.9 hPa Calm     95% 0.0 mm 0 W/m2
01:14 14.4 °C 13.6 °C 1013.9 hPa Calm     95% 0.0 mm 0 W/m2
01:19 14.4 °C 13.6 °C 1013.9 hPa Calm     95% 0.0 mm 0 W/m2
01:24 14.4 °C 13.6 °C 1013.5 hPa Calm     95% 0.0 mm 0 W/m2
01:41 14.3 °C 13.5 °C 1013.5 hPa Calm     95% 0.0 mm 0 W/m2
01:46 14.3 °C 13.5 °C 1013.5 hPa Calm     95% 0.0 mm 0 W/m2
01:51 14.3 °C 13.5 °C 1013.5 hPa Calm     95% 0.0 mm 0 W/m2
01:56 14.2 °C 13.4 °C 1013.5 hPa Calm     95% 0.0 mm 0 W/m2
02:13 13.9 °C 13.1 °C 1013.2 hPa SSW 1.4 km/h 3.2 km/h 95% 0.0 mm 0 W/m2
02:18 13.9 °C 13.1 °C 1013.5 hPa SSW 1.4 km/h 3.2 km/h 95% 0.0 mm 0 W/m2
02:23 13.8 °C 13 °C 1013.5 hPa Calm     95% 0.0 mm 0 W/m2
02:28 13.8 °C 13 °C 1013.2 hPa Calm   3.2 km/h 95% 0.0 mm 0 W/m2
02:33 13.8 °C 13 °C 1013.2 hPa Calm     95% 0.0 mm 0 W/m2
02:38 13.7 °C 12.9 °C 1013.2 hPa Calm     95% 0.0 mm 0 W/m2
02:43 13.7 °C 12.9 °C 1013.2 hPa Calm     95% 0.0 mm 0 W/m2
02:48 13.7 °C 12.9 °C 1013.2 hPa Calm     95% 0.0 mm 0 W/m2
02:53 13.7 °C 13.1 °C 1013.2 hPa Calm     96% 0.0 mm 0 W/m2
02:58 13.7 °C 13.1 °C 1013.2 hPa Calm     96% 0.0 mm 0 W/m2
03:03 13.7 °C 13.1 °C 1013.2 hPa Calm     96% 0.0 mm 0 W/m2
03:09 13.7 °C 13.1 °C 1013.2 hPa Calm     96% 0.0 mm 0 W/m2
03:14 13.6 °C 13 °C 1013.2 hPa Calm     96% 0.0 mm 0 W/m2
03:19 13.6 °C 12.8 °C 1013.2 hPa Calm     95% 0.0 mm 0 W/m2
03:24 13.5 °C 12.7 °C 1013.2 hPa Calm     95% 0.0 mm 0 W/m2
03:29 13.4 °C 12.8 °C 1012.9 hPa Calm     96% 0.0 mm 0 W/m2
03:34 13.4 °C 12.8 °C 1012.9 hPa Calm   1.6 km/h 96% 0.0 mm 0 W/m2
03:39 13.4 °C 12.8 °C 1012.9 hPa Calm     96% 0.0 mm 0 W/m2
03:44 13.3 °C 12.7 °C 1012.9 hPa Calm   1.6 km/h 96% 0.0 mm 0 W/m2
03:49 13.3 °C 12.7 °C 1012.9 hPa Calm     96% 0.2 mm 0 W/m2
03:54 13.3 °C 12.7 °C 1012.9 hPa Calm     96% 0.2 mm 0 W/m2
03:59 13.3 °C 12.7 °C 1012.9 hPa Calm     96% 0.2 mm 0 W/m2
04:04 13.3 °C 12.7 °C 1012.9 hPa Calm     96% 0.2 mm 0 W/m2
04:09 13.3 °C 12.7 °C 1012.9 hPa Calm   3.2 km/h 96% 0.2 mm 0 W/m2
04:14 13.3 °C 12.7 °C 1012.9 hPa Calm     96% 0.2 mm 0 W/m2
04:19 13.3 °C 12.7 °C 1012.5 hPa Calm   3.2 km/h 96% 0.2 mm 0 W/m2
04:24 13.3 °C 12.7 °C 1012.5 hPa Calm     96% 0.2 mm 0 W/m2
04:29 13.3 °C 12.7 °C 1012.5 hPa Calm     96% 0.2 mm 0 W/m2
04:34 13.3 °C 12.7 °C 1012.5 hPa Calm     96% 0.2 mm 0 W/m2
04:39 13.4 °C 12.8 °C 1012.5 hPa Calm     96% 0.2 mm 0 W/m2
04:44 13.4 °C 12.8 °C 1012.5 hPa Calm     96% 0.2 mm 0 W/m2
04:49 13.4 °C 12.8 °C 1012.5 hPa Calm     96% 0.0 mm 0 W/m2
04:54 13.4 °C 12.8 °C 1012.5 hPa Calm     96% 0.0 mm 0 W/m2
04:59 13.4 °C 12.8 °C 1012.5 hPa Calm     96% 0.0 mm 0 W/m2
05:18 13.4 °C 12.8 °C 1012.2 hPa Calm     96% 0.0 mm 0 W/m2
05:23 13.5 °C 12.9 °C 1012.2 hPa Calm     96% 0.0 mm 0 W/m2
05:28 13.5 °C 12.9 °C 1012.2 hPa Calm   1.6 km/h 96% 0.0 mm 0 W/m2
05:33 13.6 °C 13 °C 1012.2 hPa Calm     96% 0.0 mm 0 W/m2
05:38 13.6 °C 13 °C 1012.5 hPa SSW 1.4 km/h 3.2 km/h 96% 0.0 mm 0 W/m2
05:43 13.6 °C 13 °C 1012.5 hPa NE 4.7 km/h 4.8 km/h 96% 0.0 mm 0 W/m2
05:48 13.7 °C 13.1 °C 1012.5 hPa ENE 4.7 km/h 8 km/h 96% 0.2 mm 0 W/m2
05:53 13.8 °C 13.3 °C 1012.2 hPa WSW 3.2 km/h 6.4 km/h 97% 0.5 mm 0 W/m2
05:58 13.9 °C 13.4 °C 1012.5 hPa NNE 3.2 km/h 8 km/h 97% 0.8 mm 0 W/m2
06:03 13.9 °C 13.3 °C 1012.5 hPa Calm   8 km/h 96% 1.0 mm 0 W/m2
06:08 14 °C 13.4 °C 1012.5 hPa Calm   8 km/h 96% 1.3 mm 0 W/m2
06:13 14.1 °C 13.5 °C 1012.5 hPa West 4.7 km/h 8 km/h 96% 1.5 mm 0 W/m2
06:18 14.2 °C 13.6 °C 1012.2 hPa NNW 7.9 km/h 17.7 km/h 96% 2.3 mm 0 W/m2
06:23 14.2 °C 13.4 °C 1012.2 hPa NW 7.9 km/h 11.3 km/h 95% 3.3 mm 0 W/m2
06:28 14.1 °C 13.3 °C 1012.2 hPa WNW 7.9 km/h 12.9 km/h 95% 3.6 mm 0 W/m2
06:33 14.1 °C 13.1 °C 1012.2 hPa NW 4.7 km/h 6.4 km/h 94% 4.1 mm 0 W/m2
06:38 14.2 °C 13.2 °C 1012.2 hPa North 1.4 km/h 4.8 km/h 94% 4.3 mm 0 W/m2
06:43 14.1 °C 13.1 °C 1012.2 hPa NW 3.2 km/h 4.8 km/h 94% 4.3 mm 0 W/m2
06:48 14.1 °C 13 °C 1012.2 hPa NW 4.7 km/h 4.8 km/h 93% 4.3 mm 0 W/m2
06:53 14.1 °C 13 °C 1012.2 hPa NNW 4.7 km/h 4.8 km/h 93% 4.1 mm 5 W/m2
07:10 14.1 °C 13 °C 1012.5 hPa Calm     93% 3.0 mm 5 W/m2
07:15 14 °C 12.9 °C 1012.9 hPa West 3.2 km/h 6.4 km/h 93% 2.5 mm 0 W/m2
07:20 14 °C 12.9 °C 1013.2 hPa West 9.7 km/h 17.7 km/h 93% 4.8 mm 0 W/m2
07:25 14.1 °C 13.1 °C 1013.2 hPa WNW 3.2 km/h 14.5 km/h 94% 7.9 mm 5 W/m2
07:30 14.1 °C 13.1 °C 1013.2 hPa WSW 3.2 km/h 9.7 km/h 94% 8.9 mm 5 W/m2
07:35 13.9 °C 12.8 °C 1013.2 hPa WSW 3.2 km/h 14.5 km/h 93% 11.2 mm 5 W/m2
07:40 13.8 °C 12.7 °C 1012.9 hPa West 1.4 km/h 4.8 km/h 93% 12.2 mm 0 W/m2
07:59 13.4 °C 12.5 °C 1012.9 hPa Calm     94% 12.9 mm 5 W/m2
08:04 13.4 °C 12.5 °C 1012.5 hPa ESE 1.4 km/h 3.2 km/h 94% 13.5 mm 5 W/m2
08:09 13.4 °C 12.5 °C 1012.5 hPa Calm   1.6 km/h 94% 13.7 mm 9 W/m2
08:14 13.4 °C 12.6 °C 1012.5 hPa Calm     95% 13.7 mm 16 W/m2
08:19 13.4 °C 12.6 °C 1012.5 hPa Calm     95% 11.2 mm 33 W/m2
08:24 13.5 °C 12.7 °C 1012.5 hPa ESE 1.4 km/h 1.6 km/h 95% 7.6 mm 51 W/m2
08:43 13.9 °C 13.3 °C 1012.2 hPa Calm     96% 1.8 mm 128 W/m2
08:48 14.1 °C 13.5 °C 1012.5 hPa WNW 1.4 km/h 8 km/h 96% 1.8 mm 111 W/m2
08:53 14.1 °C 13.5 °C 1012.5 hPa West 3.2 km/h 4.8 km/h 96% 1.8 mm 98 W/m2
08:58 14.1 °C 13.5 °C 1012.5 hPa West 3.2 km/h 8 km/h 96% 1.5 mm 84 W/m2
09:03 14.1 °C 13.5 °C 1012.5 hPa WNW 3.2 km/h 4.8 km/h 96% 0.8 mm 88 W/m2
09:08 14.1 °C 13.5 °C 1012.5 hPa Calm   8 km/h 96% 0.5 mm 118 W/m2
09:13 14.2 °C 13.6 °C 1012.9 hPa West 4.7 km/h 4.8 km/h 96% 0.5 mm 79 W/m2
09:18 14.2 °C 13.6 °C 1012.9 hPa West 1.4 km/h 6.4 km/h 96% 0.2 mm 107 W/m2
09:23 14.2 °C 13.6 °C 1012.5 hPa Calm   4.8 km/h 96% 0.5 mm 86 W/m2
09:28 14.2 °C 13.6 °C 1012.5 hPa Calm   1.6 km/h 96% 0.5 mm 84 W/m2
09:33 14.3 °C 13.7 °C 1012.5 hPa Calm   4.8 km/h 96% 0.8 mm 76 W/m2
09:47 14.4 °C 13.8 °C 1012.2 hPa Calm     96% 0.8 mm 181 W/m2
09:52 14.7 °C 14.1 °C 1012.5 hPa ENE 1.6 km/h 1.6 km/h 96% 0.8 mm 234 W/m2
09:57 14.8 °C 14.2 °C 1012.5 hPa Calm   3.2 km/h 96% 0.8 mm 246 W/m2
10:02 14.8 °C 14.2 °C 1012.5 hPa Calm   1.6 km/h 96% 0.8 mm 279 W/m2
10:07 15.1 °C 14.5 °C 1012.5 hPa Calm   3.2 km/h 96% 0.8 mm 348 W/m2
10:12 15.2 °C 14.6 °C 1012.5 hPa Calm     96% 0.8 mm 287 W/m2
10:17 15.4 °C 14.8 °C 1012.9 hPa ENE 1.4 km/h 4.8 km/h 96% 0.8 mm 223 W/m2
10:22 15.4 °C 14.8 °C 1012.9 hPa NE 1.4 km/h 3.2 km/h 96% 0.5 mm 162 W/m2
10:27 15.5 °C 14.7 °C 1012.5 hPa NE 3.2 km/h 4.8 km/h 95% 0.5 mm 200 W/m2
10:32 15.6 °C 14.8 °C 1012.5 hPa East 3.2 km/h 4.8 km/h 95% 0.0 mm 220 W/m2
10:37 15.7 °C 14.9 °C 1012.5 hPa ENE 3.2 km/h 3.2 km/h 95% 0.0 mm 169 W/m2
10:42 15.8 °C 14.8 °C 1012.2 hPa Calm   1.6 km/h 94% 0.0 mm 162 W/m2
10:58 16.1 °C 15.1 °C 1012.2 hPa East 4.7 km/h 4.8 km/h 94% 0.0 mm 195 W/m2
11:03 16.1 °C 15.1 °C 1012.2 hPa East 3.2 km/h 6.4 km/h 94% 0.0 mm 193 W/m2
11:08 15.9 °C 14.8 °C 1012.2 hPa East 1.4 km/h 9.7 km/h 93% 0.0 mm 181 W/m2
11:13 15.8 °C 14.7 °C 1012.2 hPa East 3.2 km/h 4.8 km/h 93% 0.0 mm 322 W/m2
11:18 15.9 °C 14.9 °C 1011.9 hPa ENE 1.4 km/h 9.7 km/h 94% 0.0 mm 359 W/m2
11:23 16 °C 15 °C 1011.9 hPa ENE 1.4 km/h 6.4 km/h 94% 0.0 mm 329 W/m2
11:28 16.1 °C 15.1 °C 1012.2 hPa NE 1.4 km/h 9.7 km/h 94% 0.0 mm 325 W/m2
11:45 16.3 °C 15.2 °C 1012.2 hPa ENE 3.2 km/h 4.8 km/h 93% 0.0 mm 204 W/m2
11:51 16.4 °C 15.3 °C 1011.9 hPa East 4.7 km/h 8 km/h 93% 0.0 mm 276 W/m2
11:56 16.5 °C 15.2 °C 1011.9 hPa ENE 7.9 km/h 9.7 km/h 92% 0.0 mm 322 W/m2
12:01 16.4 °C 14.9 °C 1012.2 hPa East 7.9 km/h 9.7 km/h 91% 0.0 mm 311 W/m2
12:06 16.6 °C 15.1 °C 1011.9 hPa North 3.2 km/h 3.2 km/h 91% 0.0 mm 768 W/m2
12:11 16.8 °C 15.3 °C 1011.9 hPa NE 3.2 km/h 11.3 km/h 91% 0.0 mm 267 W/m2
12:16 16.8 °C 15.1 °C 1011.9 hPa ENE 3.2 km/h 8 km/h 90% 0.0 mm 188 W/m2
12:21 16.8 °C 15.1 °C 1011.9 hPa WSW 1.4 km/h 11.3 km/h 90% 0.0 mm 130 W/m2
12:26 16.6 °C 14.8 °C 1011.9 hPa ENE 9.7 km/h 9.7 km/h 89% 0.0 mm 120 W/m2
12:31 16.5 °C 14.7 °C 1011.9 hPa ESE 9.7 km/h 12.9 km/h 89% 0.0 mm 132 W/m2
12:36 16.4 °C 14.6 °C 1011.9 hPa ESE 1.4 km/h 9.7 km/h 89% 0.0 mm 162 W/m2
12:41 16.4 °C 14.8 °C 1011.9 hPa NNE 4.7 km/h 12.9 km/h 90% 0.0 mm 186 W/m2
12:46 16.4 °C 14.8 °C 1011.9 hPa ESE 6.4 km/h 11.3 km/h 90% 0.0 mm 204 W/m2
12:51 16.5 °C 14.9 °C 1011.9 hPa Calm   4.8 km/h 90% 0.0 mm 232 W/m2
12:56 16.8 °C 15.1 °C 1011.9 hPa ESE 3.2 km/h 6.4 km/h 90% 0.0 mm 424 W/m2
13:12 17.4 °C 15.4 °C 1011.9 hPa East 6.4 km/h 6.4 km/h 88% 0.0 mm 142 W/m2
13:17 17.2 °C 15.4 °C 1011.9 hPa East 1.4 km/h 3.2 km/h 89% 0.5 mm 111 W/m2
13:22 17 °C 15.2 °C 1011.9 hPa ENE 4.7 km/h 9.7 km/h 89% 0.8 mm 148 W/m2
13:27 16.8 °C 15.1 °C 1011.9 hPa Calm   6.4 km/h 90% 1.0 mm 167 W/m2
13:32 16.7 °C 15.2 °C 1011.9 hPa ENE 1.4 km/h 4.8 km/h 91% 1.3 mm 179 W/m2
13:37 16.6 °C 15.3 °C 1011.5 hPa WSW 1.4 km/h 3.2 km/h 92% 1.3 mm 130 W/m2
13:43 16.6 °C 15.3 °C 1011.9 hPa Calm   3.2 km/h 92% 1.5 mm 155 W/m2
13:48 16.7 °C 15.4 °C 1011.9 hPa Calm   1.6 km/h 92% 1.5 mm 250 W/m2
13:53 16.7 °C 15.6 °C 1011.9 hPa Calm   4.8 km/h 93% 1.5 mm 292 W/m2
13:58 16.9 °C 15.8 °C 1011.5 hPa East 3.2 km/h 9.7 km/h 93% 1.5 mm 272 W/m2
14:03 17 °C 15.9 °C 1011.5 hPa Calm   4.8 km/h 93% 1.5 mm 236 W/m2
14:08 17.1 °C 15.6 °C 1011.5 hPa Calm   9.7 km/h 91% 1.5 mm 207 W/m2
14:24 17.4 °C 15.9 °C 1011.2 hPa Calm   3.2 km/h 91% 0.5 mm 810 W/m2
14:29 17.6 °C 15.8 °C 1011.2 hPa Calm   1.6 km/h 89% 0.5 mm 339 W/m2
14:34 17.9 °C 16.4 °C 1011.2 hPa SE 1.4 km/h 6.4 km/h 91% 0.5 mm 490 W/m2
14:39 18 °C 16.2 °C 1011.2 hPa NE 1.4 km/h 4.8 km/h 89% 0.5 mm 540 W/m2
14:44 18.1 °C 16.1 °C 1011.2 hPa NNW 4.7 km/h 6.4 km/h 88% 0.0 mm 220 W/m2
14:49 18.1 °C 16.1 °C 1011.2 hPa NNW 1.4 km/h 3.2 km/h 88% 0.0 mm 218 W/m2
14:54 18.2 °C 16.2 °C 1011.2 hPa Calm   6.4 km/h 88% 0.0 mm 167 W/m2
14:59 18.2 °C 15.8 °C 1011.2 hPa WNW 1.4 km/h 4.8 km/h 86% 0.0 mm 153 W/m2
15:04 18.1 °C 15.7 °C 1011.2 hPa WNW 4.7 km/h 9.7 km/h 86% 0.0 mm 148 W/m2
15:09 17.9 °C 15.7 °C 1011.2 hPa WNW 3.2 km/h 12.9 km/h 87% 0.2 mm 178 W/m2
15:14 17.7 °C 15.7 °C 1011.2 hPa WNW 1.4 km/h 6.4 km/h 88% 0.8 mm 276 W/m2
15:19 17.6 °C 15.8 °C 1011.2 hPa Calm   12.9 km/h 89% 0.8 mm 316 W/m2
15:38 18.6 °C 16 °C 1011.2 hPa WSW 11.1 km/h 12.9 km/h 85% 0.8 mm 120 W/m2
15:43 18.3 °C 15.7 °C 1011.2 hPa WNW 11.1 km/h 12.9 km/h 85% 0.8 mm 67 W/m2
15:48 17.6 °C 15.2 °C 1011.2 hPa West 6.4 km/h 9.7 km/h 86% 1.5 mm 183 W/m2
15:53 17.1 °C 15.1 °C 1011.5 hPa WNW 6.4 km/h 9.7 km/h 88% 1.5 mm 260 W/m2
15:58 16.9 °C 15.2 °C 1011.5 hPa West 6.4 km/h 12.9 km/h 90% 1.5 mm 295 W/m2
16:03 16.9 °C 15.2 °C 1011.5 hPa West 14.3 km/h 14.5 km/h 90% 1.5 mm 459 W/m2
16:08 17 °C 15.3 °C 1011.5 hPa SW 7.9 km/h 11.3 km/h 90% 1.5 mm 302 W/m2
16:13 17 °C 15.2 °C 1011.5 hPa WNW 6.4 km/h 14.5 km/h 89% 0.8 mm 248 W/m2
16:18 16.9 °C 14.9 °C 1011.5 hPa West 4.7 km/h 14.5 km/h 88% 0.8 mm 188 W/m2
16:23 16.8 °C 14.8 °C 1011.5 hPa WNW 6.4 km/h 6.4 km/h 88% 0.8 mm 236 W/m2
16:28 16.8 °C 15 °C 1011.5 hPa WNW 6.4 km/h 11.3 km/h 89% 0.8 mm 264 W/m2
16:33 16.8 °C 14.8 °C 1011.5 hPa WNW 3.2 km/h 9.7 km/h 88% 0.8 mm 200 W/m2
16:38 16.8 °C 14.8 °C 1011.5 hPa Calm   6.4 km/h 88% 0.8 mm 200 W/m2
16:43 16.9 °C 14.9 °C 1011.5 hPa West 9.7 km/h 12.9 km/h 88% 0.5 mm 234 W/m2
16:48 16.9 °C 14.7 °C 1011.5 hPa West 3.2 km/h 6.4 km/h 87% 0.2 mm 290 W/m2
16:53 17 °C 14.8 °C 1011.9 hPa SW 7.9 km/h 12.9 km/h 87% 0.2 mm 237 W/m2
16:58 17 °C 15 °C 1011.9 hPa West 11.1 km/h 16.1 km/h 88% 0.0 mm 174 W/m2
17:03 17 °C 15 °C 1011.9 hPa NW 1.4 km/h 4.8 km/h 88% 0.0 mm 135 W/m2
17:08 16.9 °C 14.9 °C 1011.9 hPa NNW 1.4 km/h 6.4 km/h 88% 0.0 mm 149 W/m2
17:26 16.9 °C 15.1 °C 1011.9 hPa WNW 11.1 km/h 12.9 km/h 89% 0.0 mm 130 W/m2
17:31 16.8 °C 15 °C 1011.9 hPa NW 1.4 km/h 4.8 km/h 89% 0.0 mm 139 W/m2
17:36 16.8 °C 15.1 °C 1011.9 hPa West 4.7 km/h 6.4 km/h 90% 0.0 mm 134 W/m2
17:53 16.7 °C 15.1 °C 1011.9 hPa WSW 7.9 km/h 11.3 km/h 90% 0.0 mm 174 W/m2
17:58 16.7 °C 14.9 °C 1011.9 hPa West 3.2 km/h 6.4 km/h 89% 0.0 mm 214 W/m2
18:03 16.7 °C 14.7 °C 1011.9 hPa West 4.7 km/h 11.3 km/h 88% 0.0 mm 227 W/m2
18:21 17.1 °C 14.9 °C 1011.9 hPa WNW 4.7 km/h 9.7 km/h 87% 0.0 mm 278 W/m2
18:27 17.3 °C 14.9 °C 1011.9 hPa WSW 7.9 km/h 8 km/h 86% 0.0 mm 221 W/m2
18:32 17.3 °C 14.9 °C 1011.9 hPa WNW 3.2 km/h 11.3 km/h 86% 0.0 mm 183 W/m2
18:37 17.3 °C 14.9 °C 1011.9 hPa WSW 4.7 km/h 8 km/h 86% 0.0 mm 167 W/m2
18:42 17.3 °C 14.9 °C 1011.9 hPa West 4.7 km/h 11.3 km/h 86% 0.0 mm 163 W/m2
18:47 17.3 °C 15.1 °C 1011.9 hPa WSW 9.7 km/h 12.9 km/h 87% 0.0 mm 153 W/m2
18:52 17.3 °C 15.1 °C 1011.9 hPa WSW 4.7 km/h 6.4 km/h 87% 0.0 mm 207 W/m2
18:57 17.4 °C 15 °C 1011.9 hPa West 3.2 km/h 11.3 km/h 86% 0.0 mm 186 W/m2
19:02 17.5 °C 15.3 °C 1011.9 hPa WSW 1.4 km/h 4.8 km/h 87% 0.0 mm 244 W/m2
19:07 17.8 °C 15.4 °C 1011.5 hPa WSW 4.7 km/h 9.7 km/h 86% 0.0 mm 339 W/m2
19:12 17.9 °C 15.3 °C 1011.5 hPa WNW 3.2 km/h 4.8 km/h 85% 0.0 mm 220 W/m2
19:17 18.2 °C 15.3 °C 1011.5 hPa West 4.7 km/h 11.3 km/h 83% 0.0 mm 163 W/m2
19:22 18.1 °C 15 °C 1011.5 hPa Calm   6.4 km/h 82% 0.0 mm 209 W/m2
19:27 18.1 °C 15 °C 1011.5 hPa WSW 6.4 km/h 11.3 km/h 82% 0.0 mm 134 W/m2
19:32 17.9 °C 14.8 °C 1011.5 hPa West 1.4 km/h 6.4 km/h 82% 0.0 mm 90 W/m2
19:49 17.2 °C 14.7 °C 1011.5 hPa WNW 4.7 km/h 6.4 km/h 85% 0.0 mm 47 W/m2
19:55 17.1 °C 14.7 °C 1011.9 hPa WSW 1.4 km/h 4.8 km/h 86% 0.0 mm 39 W/m2
20:00 17 °C 14.8 °C 1011.9 hPa Calm   1.6 km/h 87% 0.0 mm 35 W/m2
20:05 16.9 °C 14.9 °C 1011.9 hPa Calm   1.6 km/h 88% 0.0 mm 42 W/m2
20:10 16.9 °C 15.1 °C 1011.9 hPa Calm     89% 0.0 mm 51 W/m2
20:15 16.8 °C 15.1 °C 1011.9 hPa WSW 1.4 km/h 1.6 km/h 90% 0.0 mm 37 W/m2
20:20 16.8 °C 15.1 °C 1011.9 hPa WSW 1.4 km/h 1.6 km/h 90% 0.0 mm 35 W/m2
20:25 16.7 °C 15.1 °C 1011.9 hPa Calm   3.2 km/h 90% 0.0 mm 42 W/m2
20:30 16.7 °C 15.2 °C 1011.9 hPa Calm   1.6 km/h 91% 0.0 mm 46 W/m2
20:35 16.7 °C 15.2 °C 1011.9 hPa Calm   3.2 km/h 91% 0.0 mm 39 W/m2
20:40 16.7 °C 15.2 °C 1011.9 hPa SE 1.4 km/h 1.6 km/h 91% 0.0 mm 26 W/m2
20:45 16.7 °C 15.2 °C 1011.9 hPa SE 1.4 km/h 3.2 km/h 91% 0.0 mm 16 W/m2
20:50 16.6 °C 15.1 °C 1011.9 hPa Calm   3.2 km/h 91% 0.0 mm 12 W/m2
20:55 16.4 °C 14.9 °C 1011.9 hPa Calm   1.6 km/h 91% 0.0 mm 9 W/m2
21:14 16.1 °C 14.8 °C 1011.9 hPa Calm   1.6 km/h 92% 0.0 mm 0 W/m2
21:19 15.9 °C 14.6 °C 1011.9 hPa Calm   6.4 km/h 92% 0.0 mm 0 W/m2
21:24 15.9 °C 14.6 °C 1012.2 hPa NW 4.7 km/h 4.8 km/h 92% 0.0 mm 0 W/m2
21:29 15.8 °C 14.5 °C 1012.2 hPa NW 6.4 km/h 6.4 km/h 92% 0.0 mm 0 W/m2
21:34 15.8 °C 14.5 °C 1012.2 hPa WNW 3.2 km/h 6.4 km/h 92% 0.0 mm 0 W/m2
21:39 15.9 °C 14.6 °C 1012.2 hPa NNW 1.4 km/h 4.8 km/h 92% 0.0 mm 0 W/m2
21:44 15.9 °C 14.6 °C 1012.5 hPa WNW 6.4 km/h 6.4 km/h 92% 0.0 mm 0 W/m2
21:49 16 °C 14.7 °C 1012.5 hPa West 3.2 km/h 6.4 km/h 92% 0.0 mm 0 W/m2
21:54 15.9 °C 14.6 °C 1012.5 hPa Calm   6.4 km/h 92% 0.0 mm 0 W/m2
21:59 15.9 °C 14.6 °C 1012.5 hPa WSW 1.4 km/h 1.6 km/h 92% 0.0 mm 0 W/m2
22:04 15.8 °C 14.5 °C 1012.5 hPa WNW 3.2 km/h 6.4 km/h 92% 0.0 mm 0 W/m2
22:09 15.8 °C 14.5 °C 1012.5 hPa West 9.7 km/h 9.7 km/h 92% 0.0 mm 0 W/m2
22:14 15.8 °C 14.5 °C 1012.9 hPa WNW 3.2 km/h 4.8 km/h 92% 0.2 mm 0 W/m2
22:19 15.7 °C 14.4 °C 1012.5 hPa WNW 1.4 km/h 6.4 km/h 92% 0.5 mm 0 W/m2
22:24 15.7 °C 14.6 °C 1012.9 hPa West 3.2 km/h 4.8 km/h 93% 0.5 mm 0 W/m2
22:29 15.6 °C 14.5 °C 1012.9 hPa WNW 3.2 km/h 6.4 km/h 93% 0.5 mm 0 W/m2
22:34 15.6 °C 14.5 °C 1012.9 hPa NW 1.4 km/h 6.4 km/h 93% 0.5 mm 0 W/m2
22:39 15.6 °C 14.5 °C 1012.9 hPa West 3.2 km/h 4.8 km/h 93% 0.5 mm 0 W/m2
22:44 15.6 °C 14.5 °C 1012.9 hPa WNW 4.7 km/h 4.8 km/h 93% 0.5 mm 0 W/m2
22:49 15.4 °C 14.3 °C 1012.9 hPa NW 7.9 km/h 14.5 km/h 93% 0.5 mm 0 W/m2
22:54 15.4 °C 14.1 °C 1012.9 hPa West 11.1 km/h 12.9 km/h 92% 0.5 mm 0 W/m2
22:59 15.4 °C 14.1 °C 1012.9 hPa WNW 4.7 km/h 14.5 km/h 92% 0.5 mm 0 W/m2
23:04 15.3 °C 14 °C 1012.9 hPa WNW 3.2 km/h 11.3 km/h 92% 0.5 mm 0 W/m2
23:09 15.3 °C 14 °C 1012.9 hPa SW 7.9 km/h 12.9 km/h 92% 0.5 mm 0 W/m2
23:14 15.2 °C 13.9 °C 1012.9 hPa WSW 1.4 km/h 12.9 km/h 92% 0.2 mm 0 W/m2
23:19 15.2 °C 13.9 °C 1012.9 hPa WSW 7.9 km/h 14.5 km/h 92% 0.0 mm 0 W/m2
23:24 15.2 °C 13.9 °C 1012.9 hPa West 6.4 km/h 12.9 km/h 92% 0.0 mm 0 W/m2
23:29 15.1 °C 13.8 °C 1012.9 hPa WSW 6.4 km/h 6.4 km/h 92% 0.0 mm 0 W/m2
23:34 15.1 °C 13.8 °C 1012.9 hPa West 6.4 km/h 11.3 km/h 92% 0.0 mm 0 W/m2
23:39 15.1 °C 14 °C 1012.5 hPa WSW 11.1 km/h 14.5 km/h 93% 0.0 mm 0 W/m2
23:44 15.1 °C 14 °C 1012.9 hPa WNW 4.7 km/h 9.7 km/h 93% 0.0 mm 0 W/m2
23:50 15.1 °C 14 °C 1012.9 hPa West 14.5 km/h 14.5 km/h 93% 0.0 mm 0 W/m2
23:55 15.1 °C 14 °C 1012.9 hPa West 6.4 km/h 6.4 km/h 93% 0.0 mm 0 W/m2
Juneau County Weather
Compliments of Weather Underground - 2 mb